sensor_id;sensor_type;location;lat;lon;timestamp;P1;durP1;ratioP1;P2;durP2;ratioP2
49578;SDS011;35483;50.828;3.228;2023-04-25T00:01:16;9.93;;;4.82;;
49578;SDS011;35483;50.828;3.228;2023-04-25T00:03:42;8.65;;;5.45;;
49578;SDS011;35483;50.828;3.228;2023-04-25T00:06:09;8.70;;;5.05;;
49578;SDS011;35483;50.828;3.228;2023-04-25T00:08:35;7.70;;;4.85;;
49578;SDS011;35483;50.828;3.228;2023-04-25T00:11:01;11.07;;;5.10;;
49578;SDS011;35483;50.828;3.228;2023-04-25T00:13:26;9.48;;;5.03;;
49578;SDS011;35483;50.828;3.228;2023-04-25T00:15:52;10.55;;;4.70;;
49578;SDS011;35483;50.828;3.228;2023-04-25T00:18:19;7.22;;;4.30;;
49578;SDS011;35483;50.828;3.228;2023-04-25T00:20:45;11.13;;;5.18;;
49578;SDS011;35483;50.828;3.228;2023-04-25T00:23:15;13.20;;;4.55;;
49578;SDS011;35483;50.828;3.228;2023-04-25T00:25:45;6.38;;;4.25;;
49578;SDS011;35483;50.828;3.228;2023-04-25T00:28:11;7.68;;;4.72;;
49578;SDS011;35483;50.828;3.228;2023-04-25T00:30:38;10.55;;;4.28;;
49578;SDS011;35483;50.828;3.228;2023-04-25T00:33:04;9.38;;;4.60;;
49578;SDS011;35483;50.828;3.228;2023-04-25T00:35:30;8.25;;;4.65;;
49578;SDS011;35483;50.828;3.228;2023-04-25T00:37:56;9.48;;;4.95;;
49578;SDS011;35483;50.828;3.228;2023-04-25T00:40:22;11.30;;;4.63;;
49578;SDS011;35483;50.828;3.228;2023-04-25T00:42:48;9.63;;;4.50;;
49578;SDS011;35483;50.828;3.228;2023-04-25T00:45:16;6.28;;;3.65;;
49578;SDS011;35483;50.828;3.228;2023-04-25T00:47:43;7.72;;;3.72;;
49578;SDS011;35483;50.828;3.228;2023-04-25T00:50:09;9.07;;;3.72;;
49578;SDS011;35483;50.828;3.228;2023-04-25T00:52:36;7.80;;;3.40;;
49578;SDS011;35483;50.828;3.228;2023-04-25T00:55:05;9.77;;;3.75;;
49578;SDS011;35483;50.828;3.228;2023-04-25T00:57:32;5.72;;;3.55;;
49578;SDS011;35483;50.828;3.228;2023-04-25T00:59:58;9.15;;;3.85;;
49578;SDS011;35483;50.828;3.228;2023-04-25T01:02:24;10.00;;;4.65;;
49578;SDS011;35483;50.828;3.228;2023-04-25T01:04:52;8.65;;;4.43;;
49578;SDS011;35483;50.828;3.228;2023-04-25T01:07:18;8.05;;;3.70;;
49578;SDS011;35483;50.828;3.228;2023-04-25T01:09:43;9.55;;;4.18;;
49578;SDS011;35483;50.828;3.228;2023-04-25T01:12:09;8.32;;;4.00;;
49578;SDS011;35483;50.828;3.228;2023-04-25T01:14:36;11.13;;;4.22;;
49578;SDS011;35483;50.828;3.228;2023-04-25T01:17:02;10.18;;;4.35;;
49578;SDS011;35483;50.828;3.228;2023-04-25T01:19:28;12.52;;;4.68;;
49578;SDS011;35483;50.828;3.228;2023-04-25T01:21:54;9.73;;;4.15;;
49578;SDS011;35483;50.828;3.228;2023-04-25T01:24:20;7.82;;;4.10;;
49578;SDS011;35483;50.828;3.228;2023-04-25T01:26:46;10.55;;;4.25;;
49578;SDS011;35483;50.828;3.228;2023-04-25T01:29:15;10.48;;;4.47;;
49578;SDS011;35483;50.828;3.228;2023-04-25T01:31:42;8.25;;;4.30;;
49578;SDS011;35483;50.828;3.228;2023-04-25T01:34:09;8.85;;;4.00;;
49578;SDS011;35483;50.828;3.228;2023-04-25T01:36:36;11.20;;;4.80;;
49578;SDS011;35483;50.828;3.228;2023-04-25T01:39:01;9.95;;;4.45;;
49578;SDS011;35483;50.828;3.228;2023-04-25T01:41:27;12.23;;;4.82;;
49578;SDS011;35483;50.828;3.228;2023-04-25T01:43:53;9.20;;;4.20;;
49578;SDS011;35483;50.828;3.228;2023-04-25T01:46:19;7.57;;;4.35;;
49578;SDS011;35483;50.828;3.228;2023-04-25T01:48:45;9.35;;;4.10;;
49578;SDS011;35483;50.828;3.228;2023-04-25T01:51:11;8.65;;;4.07;;
49578;SDS011;35483;50.828;3.228;2023-04-25T01:53:37;10.00;;;4.05;;
49578;SDS011;35483;50.828;3.228;2023-04-25T01:56:04;7.70;;;4.10;;
49578;SDS011;35483;50.828;3.228;2023-04-25T01:58:30;10.00;;;4.78;;
49578;SDS011;35483;50.828;3.228;2023-04-25T02:00:56;7.43;;;3.72;;
49578;SDS011;35483;50.828;3.228;2023-04-25T02:03:22;8.50;;;4.43;;
49578;SDS011;35483;50.828;3.228;2023-04-25T02:05:47;9.60;;;4.57;;
49578;SDS011;35483;50.828;3.228;2023-04-25T02:08:13;7.55;;;4.20;;
49578;SDS011;35483;50.828;3.228;2023-04-25T02:10:39;10.35;;;3.80;;
49578;SDS011;35483;50.828;3.228;2023-04-25T02:13:05;10.98;;;4.57;;
49578;SDS011;35483;50.828;3.228;2023-04-25T02:15:31;9.82;;;4.93;;
49578;SDS011;35483;50.828;3.228;2023-04-25T02:17:57;12.65;;;4.38;;
49578;SDS011;35483;50.828;3.228;2023-04-25T02:20:25;8.40;;;4.10;;
49578;SDS011;35483;50.828;3.228;2023-04-25T02:22:51;9.20;;;4.18;;
49578;SDS011;35483;50.828;3.228;2023-04-25T02:25:18;8.25;;;3.95;;
49578;SDS011;35483;50.828;3.228;2023-04-25T02:27:45;9.80;;;4.13;;
49578;SDS011;35483;50.828;3.228;2023-04-25T02:30:11;8.80;;;4.38;;
49578;SDS011;35483;50.828;3.228;2023-04-25T02:32:38;10.45;;;4.18;;
49578;SDS011;35483;50.828;3.228;2023-04-25T02:35:04;8.85;;;3.83;;
49578;SDS011;35483;50.828;3.228;2023-04-25T02:37:31;7.97;;;4.03;;
49578;SDS011;35483;50.828;3.228;2023-04-25T02:39:58;7.82;;;4.07;;
49578;SDS011;35483;50.828;3.228;2023-04-25T02:42:24;8.43;;;3.90;;
49578;SDS011;35483;50.828;3.228;2023-04-25T02:44:49;10.32;;;4.07;;
49578;SDS011;35483;50.828;3.228;2023-04-25T02:47:15;9.27;;;4.63;;
49578;SDS011;35483;50.828;3.228;2023-04-25T02:49:41;8.35;;;3.95;;
49578;SDS011;35483;50.828;3.228;2023-04-25T02:52:06;8.80;;;3.70;;
49578;SDS011;35483;50.828;3.228;2023-04-25T02:54:32;5.50;;;3.55;;
49578;SDS011;35483;50.828;3.228;2023-04-25T02:56:58;8.30;;;4.07;;
49578;SDS011;35483;50.828;3.228;2023-04-25T02:59:23;6.97;;;3.45;;
49578;SDS011;35483;50.828;3.228;2023-04-25T03:01:49;8.10;;;3.72;;
49578;SDS011;35483;50.828;3.228;2023-04-25T03:04:15;9.98;;;3.47;;
49578;SDS011;35483;50.828;3.228;2023-04-25T03:06:41;8.02;;;3.28;;
49578;SDS011;35483;50.828;3.228;2023-04-25T03:09:07;7.57;;;3.35;;
49578;SDS011;35483;50.828;3.228;2023-04-25T03:11:32;8.43;;;3.60;;
49578;SDS011;35483;50.828;3.228;2023-04-25T03:13:58;5.75;;;3.00;;
49578;SDS011;35483;50.828;3.228;2023-04-25T03:16:24;7.75;;;3.33;;
49578;SDS011;35483;50.828;3.228;2023-04-25T03:18:50;6.43;;;3.28;;
49578;SDS011;35483;50.828;3.228;2023-04-25T03:21:16;5.82;;;3.20;;
49578;SDS011;35483;50.828;3.228;2023-04-25T03:23:42;5.88;;;3.13;;
49578;SDS011;35483;50.828;3.228;2023-04-25T03:26:07;6.82;;;3.08;;
49578;SDS011;35483;50.828;3.228;2023-04-25T03:28:33;6.68;;;3.33;;
49578;SDS011;35483;50.828;3.228;2023-04-25T03:30:59;8.07;;;4.65;;
49578;SDS011;35483;50.828;3.228;2023-04-25T03:33:24;7.60;;;3.65;;
49578;SDS011;35483;50.828;3.228;2023-04-25T03:35:50;8.70;;;4.07;;
49578;SDS011;35483;50.828;3.228;2023-04-25T03:38:16;6.00;;;3.75;;
49578;SDS011;35483;50.828;3.228;2023-04-25T03:40:42;7.40;;;4.30;;
49578;SDS011;35483;50.828;3.228;2023-04-25T03:43:08;5.38;;;3.25;;
49578;SDS011;35483;50.828;3.228;2023-04-25T03:45:34;7.07;;;4.28;;
49578;SDS011;35483;50.828;3.228;2023-04-25T03:47:59;6.88;;;3.95;;
49578;SDS011;35483;50.828;3.228;2023-04-25T03:50:25;8.63;;;4.03;;
49578;SDS011;35483;50.828;3.228;2023-04-25T03:52:51;7.32;;;3.97;;
49578;SDS011;35483;50.828;3.228;2023-04-25T03:55:16;8.82;;;3.80;;
49578;SDS011;35483;50.828;3.228;2023-04-25T03:57:43;7.03;;;3.33;;
49578;SDS011;35483;50.828;3.228;2023-04-25T04:00:09;6.50;;;3.50;;
49578;SDS011;35483;50.828;3.228;2023-04-25T04:02:35;5.53;;;3.28;;
49578;SDS011;35483;50.828;3.228;2023-04-25T04:05:02;9.00;;;3.80;;
49578;SDS011;35483;50.828;3.228;2023-04-25T04:07:29;8.30;;;3.47;;
49578;SDS011;35483;50.828;3.228;2023-04-25T04:09:54;7.82;;;3.63;;
49578;SDS011;35483;50.828;3.228;2023-04-25T04:12:20;8.90;;;3.30;;
49578;SDS011;35483;50.828;3.228;2023-04-25T04:14:46;5.05;;;3.00;;
49578;SDS011;35483;50.828;3.228;2023-04-25T04:17:11;6.72;;;3.10;;
49578;SDS011;35483;50.828;3.228;2023-04-25T04:19:38;5.70;;;3.50;;
49578;SDS011;35483;50.828;3.228;2023-04-25T04:22:04;5.70;;;3.00;;
49578;SDS011;35483;50.828;3.228;2023-04-25T04:24:29;7.20;;;3.80;;
49578;SDS011;35483;50.828;3.228;2023-04-25T04:26:55;9.95;;;4.03;;
49578;SDS011;35483;50.828;3.228;2023-04-25T04:29:21;8.75;;;3.92;;
49578;SDS011;35483;50.828;3.228;2023-04-25T04:31:51;8.05;;;3.85;;
49578;SDS011;35483;50.828;3.228;2023-04-25T04:34:17;6.50;;;3.38;;
49578;SDS011;35483;50.828;3.228;2023-04-25T04:36:43;8.27;;;3.47;;
49578;SDS011;35483;50.828;3.228;2023-04-25T04:39:13;8.27;;;4.15;;
49578;SDS011;35483;50.828;3.228;2023-04-25T04:41:39;6.78;;;3.53;;
49578;SDS011;35483;50.828;3.228;2023-04-25T04:44:04;9.38;;;4.32;;
49578;SDS011;35483;50.828;3.228;2023-04-25T04:46:31;8.35;;;3.78;;
49578;SDS011;35483;50.828;3.228;2023-04-25T04:49:03;5.70;;;3.63;;
49578;SDS011;35483;50.828;3.228;2023-04-25T04:51:36;5.80;;;3.47;;
49578;SDS011;35483;50.828;3.228;2023-04-25T04:54:02;8.40;;;4.10;;
49578;SDS011;35483;50.828;3.228;2023-04-25T04:56:28;11.73;;;3.95;;
49578;SDS011;35483;50.828;3.228;2023-04-25T04:58:56;8.93;;;3.67;;
49578;SDS011;35483;50.828;3.228;2023-04-25T05:01:22;7.80;;;3.50;;
49578;SDS011;35483;50.828;3.228;2023-04-25T05:03:49;6.40;;;3.38;;
49578;SDS011;35483;50.828;3.228;2023-04-25T05:06:16;4.32;;;2.90;;
49578;SDS011;35483;50.828;3.228;2023-04-25T05:08:42;6.50;;;2.90;;
49578;SDS011;35483;50.828;3.228;2023-04-25T05:11:08;5.68;;;3.58;;
49578;SDS011;35483;50.828;3.228;2023-04-25T05:13:34;5.95;;;3.03;;
49578;SDS011;35483;50.828;3.228;2023-04-25T05:16:00;5.18;;;3.20;;
49578;SDS011;35483;50.828;3.228;2023-04-25T05:18:26;9.02;;;3.35;;
49578;SDS011;35483;50.828;3.228;2023-04-25T05:20:51;5.10;;;2.70;;
49578;SDS011;35483;50.828;3.228;2023-04-25T05:23:18;5.97;;;2.90;;
49578;SDS011;35483;50.828;3.228;2023-04-25T05:25:44;8.02;;;3.53;;
49578;SDS011;35483;50.828;3.228;2023-04-25T05:28:12;5.65;;;2.92;;
49578;SDS011;35483;50.828;3.228;2023-04-25T05:30:38;6.28;;;3.03;;
49578;SDS011;35483;50.828;3.228;2023-04-25T05:33:05;6.22;;;2.85;;
49578;SDS011;35483;50.828;3.228;2023-04-25T05:35:31;5.90;;;3.40;;
49578;SDS011;35483;50.828;3.228;2023-04-25T05:37:57;5.30;;;2.75;;
49578;SDS011;35483;50.828;3.228;2023-04-25T05:40:23;5.95;;;2.78;;
49578;SDS011;35483;50.828;3.228;2023-04-25T05:42:48;5.13;;;3.65;;
49578;SDS011;35483;50.828;3.228;2023-04-25T05:45:14;10.60;;;3.80;;
49578;SDS011;35483;50.828;3.228;2023-04-25T05:47:40;5.22;;;2.80;;
49578;SDS011;35483;50.828;3.228;2023-04-25T05:50:06;6.28;;;3.17;;
49578;SDS011;35483;50.828;3.228;2023-04-25T05:52:33;8.27;;;3.30;;
49578;SDS011;35483;50.828;3.228;2023-04-25T05:54:59;5.82;;;3.22;;
49578;SDS011;35483;50.828;3.228;2023-04-25T05:57:25;6.05;;;2.72;;
49578;SDS011;35483;50.828;3.228;2023-04-25T05:59:52;5.93;;;3.00;;
49578;SDS011;35483;50.828;3.228;2023-04-25T06:02:19;6.25;;;2.80;;
49578;SDS011;35483;50.828;3.228;2023-04-25T06:04:46;5.68;;;3.15;;
49578;SDS011;35483;50.828;3.228;2023-04-25T06:07:14;5.75;;;2.90;;
49578;SDS011;35483;50.828;3.228;2023-04-25T06:09:39;6.28;;;2.53;;
49578;SDS011;35483;50.828;3.228;2023-04-25T06:12:05;5.90;;;3.10;;
49578;SDS011;35483;50.828;3.228;2023-04-25T06:14:32;7.75;;;3.50;;
49578;SDS011;35483;50.828;3.228;2023-04-25T06:16:58;5.47;;;3.15;;
49578;SDS011;35483;50.828;3.228;2023-04-25T06:19:24;8.85;;;3.13;;
49578;SDS011;35483;50.828;3.228;2023-04-25T06:21:50;5.30;;;2.90;;
49578;SDS011;35483;50.828;3.228;2023-04-25T06:24:16;6.45;;;2.65;;
49578;SDS011;35483;50.828;3.228;2023-04-25T06:26:42;6.68;;;3.50;;
49578;SDS011;35483;50.828;3.228;2023-04-25T06:29:07;7.93;;;3.10;;
49578;SDS011;35483;50.828;3.228;2023-04-25T06:31:34;5.97;;;3.10;;
49578;SDS011;35483;50.828;3.228;2023-04-25T06:34:00;6.38;;;3.95;;
49578;SDS011;35483;50.828;3.228;2023-04-25T06:36:26;4.93;;;2.50;;
49578;SDS011;35483;50.828;3.228;2023-04-25T06:38:52;4.38;;;2.60;;
49578;SDS011;35483;50.828;3.228;2023-04-25T06:41:19;5.25;;;2.42;;
49578;SDS011;35483;50.828;3.228;2023-04-25T06:43:45;3.90;;;2.03;;
49578;SDS011;35483;50.828;3.228;2023-04-25T06:46:11;10.35;;;2.70;;
49578;SDS011;35483;50.828;3.228;2023-04-25T06:48:37;8.25;;;2.78;;
49578;SDS011;35483;50.828;3.228;2023-04-25T06:51:02;6.45;;;2.47;;
49578;SDS011;35483;50.828;3.228;2023-04-25T06:53:28;6.68;;;2.72;;
49578;SDS011;35483;50.828;3.228;2023-04-25T06:55:54;4.80;;;2.40;;
49578;SDS011;35483;50.828;3.228;2023-04-25T06:58:20;5.72;;;2.58;;
49578;SDS011;35483;50.828;3.228;2023-04-25T07:00:46;7.18;;;3.15;;
49578;SDS011;35483;50.828;3.228;2023-04-25T07:03:12;7.25;;;2.90;;
49578;SDS011;35483;50.828;3.228;2023-04-25T07:05:37;7.85;;;2.78;;
49578;SDS011;35483;50.828;3.228;2023-04-25T07:08:03;5.55;;;2.75;;
49578;SDS011;35483;50.828;3.228;2023-04-25T07:10:29;5.43;;;2.70;;
49578;SDS011;35483;50.828;3.228;2023-04-25T07:12:55;5.85;;;2.50;;
49578;SDS011;35483;50.828;3.228;2023-04-25T07:15:21;6.53;;;3.05;;
49578;SDS011;35483;50.828;3.228;2023-04-25T07:17:46;5.93;;;2.40;;
49578;SDS011;35483;50.828;3.228;2023-04-25T07:20:12;5.03;;;2.40;;
49578;SDS011;35483;50.828;3.228;2023-04-25T07:22:38;4.90;;;2.40;;
49578;SDS011;35483;50.828;3.228;2023-04-25T07:25:06;5.00;;;1.95;;
49578;SDS011;35483;50.828;3.228;2023-04-25T07:27:33;8.45;;;2.45;;
49578;SDS011;35483;50.828;3.228;2023-04-25T07:29:59;8.25;;;2.15;;
49578;SDS011;35483;50.828;3.228;2023-04-25T07:32:25;3.83;;;1.42;;
49578;SDS011;35483;50.828;3.228;2023-04-25T07:34:51;4.40;;;2.42;;
49578;SDS011;35483;50.828;3.228;2023-04-25T07:37:17;4.03;;;1.75;;
49578;SDS011;35483;50.828;3.228;2023-04-25T07:39:44;7.97;;;1.73;;
49578;SDS011;35483;50.828;3.228;2023-04-25T07:42:11;5.13;;;1.73;;
49578;SDS011;35483;50.828;3.228;2023-04-25T07:44:37;3.45;;;1.60;;
49578;SDS011;35483;50.828;3.228;2023-04-25T07:47:07;5.25;;;1.60;;
49578;SDS011;35483;50.828;3.228;2023-04-25T07:49:33;2.00;;;1.40;;
49578;SDS011;35483;50.828;3.228;2023-04-25T07:52:00;3.42;;;1.75;;
49578;SDS011;35483;50.828;3.228;2023-04-25T07:54:27;1.95;;;1.40;;
49578;SDS011;35483;50.828;3.228;2023-04-25T07:56:53;2.88;;;1.30;;
49578;SDS011;35483;50.828;3.228;2023-04-25T07:59:18;3.58;;;1.48;;
49578;SDS011;35483;50.828;3.228;2023-04-25T08:01:44;6.93;;;1.73;;
49578;SDS011;35483;50.828;3.228;2023-04-25T08:04:10;6.28;;;1.85;;
49578;SDS011;35483;50.828;3.228;2023-04-25T08:06:36;3.53;;;1.88;;
49578;SDS011;35483;50.828;3.228;2023-04-25T08:09:02;4.00;;;1.67;;
49578;SDS011;35483;50.828;3.228;2023-04-25T08:11:29;3.60;;;1.70;;
49578;SDS011;35483;50.828;3.228;2023-04-25T08:13:54;3.90;;;1.67;;
49578;SDS011;35483;50.828;3.228;2023-04-25T08:16:20;3.42;;;1.75;;
49578;SDS011;35483;50.828;3.228;2023-04-25T08:18:46;5.32;;;1.50;;
49578;SDS011;35483;50.828;3.228;2023-04-25T08:21:12;5.68;;;2.08;;
49578;SDS011;35483;50.828;3.228;2023-04-25T08:23:38;5.80;;;2.28;;
49578;SDS011;35483;50.828;3.228;2023-04-25T08:26:04;3.05;;;1.23;;
49578;SDS011;35483;50.828;3.228;2023-04-25T08:28:30;3.10;;;1.50;;
49578;SDS011;35483;50.828;3.228;2023-04-25T08:30:56;4.60;;;2.00;;
49578;SDS011;35483;50.828;3.228;2023-04-25T08:33:22;3.67;;;1.58;;
49578;SDS011;35483;50.828;3.228;2023-04-25T08:35:48;2.38;;;1.60;;
49578;SDS011;35483;50.828;3.228;2023-04-25T08:38:14;4.32;;;1.58;;
49578;SDS011;35483;50.828;3.228;2023-04-25T08:40:40;2.20;;;1.58;;
49578;SDS011;35483;50.828;3.228;2023-04-25T08:43:09;4.30;;;1.75;;
49578;SDS011;35483;50.828;3.228;2023-04-25T08:45:41;3.05;;;1.15;;
49578;SDS011;35483;50.828;3.228;2023-04-25T08:48:11;5.70;;;1.30;;
49578;SDS011;35483;50.828;3.228;2023-04-25T08:50:56;4.18;;;1.60;;
49578;SDS011;35483;50.828;3.228;2023-04-25T08:53:27;2.38;;;1.27;;
49578;SDS011;35483;50.828;3.228;2023-04-25T08:55:55;2.47;;;1.10;;
49578;SDS011;35483;50.828;3.228;2023-04-25T08:58:22;1.67;;;1.17;;
49578;SDS011;35483;50.828;3.228;2023-04-25T09:00:48;1.98;;;1.20;;
49578;SDS011;35483;50.828;3.228;2023-04-25T09:03:15;4.10;;;1.58;;
49578;SDS011;35483;50.828;3.228;2023-04-25T09:05:41;3.53;;;1.42;;
49578;SDS011;35483;50.828;3.228;2023-04-25T09:08:07;3.40;;;1.40;;
49578;SDS011;35483;50.828;3.228;2023-04-25T09:10:33;1.50;;;1.40;;
49578;SDS011;35483;50.828;3.228;2023-04-25T09:13:07;2.42;;;1.15;;
49578;SDS011;35483;50.828;3.228;2023-04-25T09:15:46;3.37;;;1.43;;
49578;SDS011;35483;50.828;3.228;2023-04-25T09:18:14;6.57;;;1.70;;
49578;SDS011;35483;50.828;3.228;2023-04-25T09:21:18;4.55;;;1.50;;
49578;SDS011;35483;50.828;3.228;2023-04-25T09:23:47;3.50;;;2.03;;
49578;SDS011;35483;50.828;3.228;2023-04-25T09:26:14;4.20;;;1.60;;
49578;SDS011;35483;50.828;3.228;2023-04-25T09:28:42;4.15;;;1.80;;
49578;SDS011;35483;50.828;3.228;2023-04-25T09:31:09;1.98;;;1.50;;
49578;SDS011;35483;50.828;3.228;2023-04-25T09:33:36;4.75;;;2.33;;
49578;SDS011;35483;50.828;3.228;2023-04-25T09:36:06;4.95;;;1.98;;
49578;SDS011;35483;50.828;3.228;2023-04-25T09:38:41;3.97;;;1.95;;
49578;SDS011;35483;50.828;3.228;2023-04-25T09:41:08;2.60;;;1.60;;
49578;SDS011;35483;50.828;3.228;2023-04-25T09:43:35;3.28;;;1.83;;
49578;SDS011;35483;50.828;3.228;2023-04-25T09:46:01;5.43;;;1.88;;
49578;SDS011;35483;50.828;3.228;2023-04-25T09:48:28;2.42;;;1.50;;
49578;SDS011;35483;50.828;3.228;2023-04-25T09:51:13;3.55;;;1.67;;
49578;SDS011;35483;50.828;3.228;2023-04-25T09:53:40;3.67;;;2.00;;
49578;SDS011;35483;50.828;3.228;2023-04-25T09:56:08;3.30;;;2.35;;
49578;SDS011;35483;50.828;3.228;2023-04-25T09:58:37;2.83;;;1.80;;
49578;SDS011;35483;50.828;3.228;2023-04-25T10:01:04;3.53;;;1.73;;
49578;SDS011;35483;50.828;3.228;2023-04-25T10:03:32;3.35;;;1.73;;
49578;SDS011;35483;50.828;3.228;2023-04-25T10:06:09;1.63;;;1.00;;
49578;SDS011;35483;50.828;3.228;2023-04-25T10:08:38;2.65;;;1.70;;
49578;SDS011;35483;50.828;3.228;2023-04-25T10:11:08;2.72;;;1.48;;
49578;SDS011;35483;50.828;3.228;2023-04-25T10:13:34;2.85;;;1.38;;
49578;SDS011;35483;50.828;3.228;2023-04-25T10:16:02;1.67;;;1.50;;
49578;SDS011;35483;50.828;3.228;2023-04-25T10:18:29;1.73;;;1.10;;
49578;SDS011;35483;50.828;3.228;2023-04-25T10:20:57;2.65;;;1.35;;
49578;SDS011;35483;50.828;3.228;2023-04-25T10:23:24;1.55;;;1.25;;
49578;SDS011;35483;50.828;3.228;2023-04-25T10:25:51;2.08;;;1.58;;
49578;SDS011;35483;50.828;3.228;2023-04-25T10:28:18;2.08;;;1.42;;
49578;SDS011;35483;50.828;3.228;2023-04-25T10:31:07;3.67;;;1.40;;
49578;SDS011;35483;50.828;3.228;2023-04-25T10:33:36;2.65;;;1.10;;
49578;SDS011;35483;50.828;3.228;2023-04-25T10:36:14;2.42;;;1.05;;
49578;SDS011;35483;50.828;3.228;2023-04-25T10:38:43;1.85;;;1.10;;
49578;SDS011;35483;50.828;3.228;2023-04-25T10:41:10;2.28;;;1.00;;
49578;SDS011;35483;50.828;3.228;2023-04-25T10:43:42;2.47;;;1.25;;
49578;SDS011;35483;50.828;3.228;2023-04-25T10:46:15;2.78;;;1.20;;
49578;SDS011;35483;50.828;3.228;2023-04-25T10:48:52;2.72;;;1.38;;
49578;SDS011;35483;50.828;3.228;2023-04-25T10:51:26;3.83;;;1.00;;
49578;SDS011;35483;50.828;3.228;2023-04-25T10:56:29;2.78;;;1.13;;
49578;SDS011;35483;50.828;3.228;2023-04-25T10:59:10;4.00;;;1.27;;
49578;SDS011;35483;50.828;3.228;2023-04-25T11:01:48;1.95;;;1.38;;
49578;SDS011;35483;50.828;3.228;2023-04-25T11:09:27;1.80;;;1.20;;
49578;SDS011;35483;50.828;3.228;2023-04-25T11:11:57;2.70;;;0.90;;
49578;SDS011;35483;50.828;3.228;2023-04-25T11:14:24;1.13;;;1.02;;
49578;SDS011;35483;50.828;3.228;2023-04-25T11:16:56;1.17;;;1.08;;
49578;SDS011;35483;50.828;3.228;2023-04-25T11:19:23;1.35;;;1.25;;
49578;SDS011;35483;50.828;3.228;2023-04-25T11:21:50;3.58;;;1.25;;
49578;SDS011;35483;50.828;3.228;2023-04-25T11:24:19;2.05;;;1.10;;
49578;SDS011;35483;50.828;3.228;2023-04-25T11:26:50;1.10;;;1.00;;
49578;SDS011;35483;50.828;3.228;2023-04-25T11:29:16;3.40;;;1.23;;
49578;SDS011;35483;50.828;3.228;2023-04-25T11:31:45;1.38;;;0.80;;
49578;SDS011;35483;50.828;3.228;2023-04-25T11:34:11;3.33;;;1.00;;
49578;SDS011;35483;50.828;3.228;2023-04-25T11:36:38;1.13;;;0.70;;
49578;SDS011;35483;50.828;3.228;2023-04-25T11:39:04;2.50;;;0.90;;
49578;SDS011;35483;50.828;3.228;2023-04-25T11:41:31;0.85;;;0.82;;
49578;SDS011;35483;50.828;3.228;2023-04-25T11:43:56;4.15;;;0.80;;
49578;SDS011;35483;50.828;3.228;2023-04-25T11:46:22;1.23;;;0.65;;
49578;SDS011;35483;50.828;3.228;2023-04-25T11:48:48;2.17;;;1.17;;
49578;SDS011;35483;50.828;3.228;2023-04-25T11:51:15;3.72;;;1.08;;
49578;SDS011;35483;50.828;3.228;2023-04-25T11:53:41;1.58;;;0.82;;
49578;SDS011;35483;50.828;3.228;2023-04-25T11:56:10;3.72;;;1.00;;
49578;SDS011;35483;50.828;3.228;2023-04-25T12:01:32;1.95;;;0.73;;
49578;SDS011;35483;50.828;3.228;2023-04-25T12:04:17;1.77;;;0.80;;
49578;SDS011;35483;50.828;3.228;2023-04-25T12:06:44;3.13;;;1.33;;
49578;SDS011;35483;50.828;3.228;2023-04-25T12:09:14;2.13;;;0.85;;
49578;SDS011;35483;50.828;3.228;2023-04-25T12:11:47;1.45;;;0.95;;
49578;SDS011;35483;50.828;3.228;2023-04-25T12:14:21;1.23;;;1.10;;
49578;SDS011;35483;50.828;3.228;2023-04-25T12:16:52;2.03;;;0.98;;
49578;SDS011;35483;50.828;3.228;2023-04-25T12:19:20;1.52;;;0.90;;
49578;SDS011;35483;50.828;3.228;2023-04-25T12:21:46;1.65;;;1.00;;
49578;SDS011;35483;50.828;3.228;2023-04-25T12:24:14;2.50;;;1.08;;
49578;SDS011;35483;50.828;3.228;2023-04-25T12:26:47;2.92;;;1.10;;
49578;SDS011;35483;50.828;3.228;2023-04-25T12:29:16;2.78;;;0.80;;
49578;SDS011;35483;50.828;3.228;2023-04-25T12:31:42;2.75;;;1.08;;
49578;SDS011;35483;50.828;3.228;2023-04-25T12:34:09;2.42;;;1.45;;
49578;SDS011;35483;50.828;3.228;2023-04-25T12:36:35;2.83;;;1.15;;
49578;SDS011;35483;50.828;3.228;2023-04-25T12:39:00;3.15;;;1.02;;
49578;SDS011;35483;50.828;3.228;2023-04-25T12:41:29;6.18;;;1.85;;
49578;SDS011;35483;50.828;3.228;2023-04-25T12:43:55;2.17;;;1.70;;
49578;SDS011;35483;50.828;3.228;2023-04-25T12:46:21;2.65;;;1.50;;
49578;SDS011;35483;50.828;3.228;2023-04-25T12:48:49;2.90;;;1.25;;
49578;SDS011;35483;50.828;3.228;2023-04-25T12:51:17;2.38;;;0.98;;
49578;SDS011;35483;50.828;3.228;2023-04-25T12:53:43;2.53;;;1.45;;
49578;SDS011;35483;50.828;3.228;2023-04-25T12:56:09;1.80;;;1.38;;
49578;SDS011;35483;50.828;3.228;2023-04-25T12:58:35;1.85;;;1.10;;
49578;SDS011;35483;50.828;3.228;2023-04-25T13:01:01;3.03;;;1.30;;
49578;SDS011;35483;50.828;3.228;2023-04-25T13:03:27;2.78;;;1.50;;
49578;SDS011;35483;50.828;3.228;2023-04-25T13:05:52;1.80;;;1.40;;
49578;SDS011;35483;50.828;3.228;2023-04-25T13:08:19;2.90;;;1.40;;
49578;SDS011;35483;50.828;3.228;2023-04-25T13:10:44;4.28;;;1.40;;
49578;SDS011;35483;50.828;3.228;2023-04-25T13:13:10;2.53;;;1.30;;
49578;SDS011;35483;50.828;3.228;2023-04-25T13:15:36;4.40;;;1.75;;
49578;SDS011;35483;50.828;3.228;2023-04-25T13:18:05;0.98;;;0.88;;
49578;SDS011;35483;50.828;3.228;2023-04-25T13:20:31;1.77;;;1.02;;
49578;SDS011;35483;50.828;3.228;2023-04-25T13:22:57;2.97;;;1.80;;
49578;SDS011;35483;50.828;3.228;2023-04-25T13:25:23;1.83;;;1.50;;
49578;SDS011;35483;50.828;3.228;2023-04-25T13:27:48;4.13;;;1.45;;
49578;SDS011;35483;50.828;3.228;2023-04-25T13:30:14;1.75;;;0.80;;
49578;SDS011;35483;50.828;3.228;2023-04-25T13:32:40;3.92;;;1.15;;
49578;SDS011;35483;50.828;3.228;2023-04-25T13:35:07;2.17;;;1.40;;
49578;SDS011;35483;50.828;3.228;2023-04-25T13:37:35;2.38;;;1.23;;
49578;SDS011;35483;50.828;3.228;2023-04-25T13:40:01;2.75;;;1.30;;
49578;SDS011;35483;50.828;3.228;2023-04-25T13:42:34;2.50;;;1.00;;
49578;SDS011;35483;50.828;3.228;2023-04-25T13:45:02;4.10;;;1.45;;
49578;SDS011;35483;50.828;3.228;2023-04-25T13:47:28;1.30;;;1.02;;
49578;SDS011;35483;50.828;3.228;2023-04-25T13:49:55;1.60;;;1.20;;
49578;SDS011;35483;50.828;3.228;2023-04-25T13:52:21;2.40;;;1.08;;
49578;SDS011;35483;50.828;3.228;2023-04-25T13:54:49;1.98;;;1.10;;
49578;SDS011;35483;50.828;3.228;2023-04-25T13:57:15;3.75;;;1.27;;
49578;SDS011;35483;50.828;3.228;2023-04-25T13:59:41;2.10;;;0.98;;
49578;SDS011;35483;50.828;3.228;2023-04-25T14:02:07;1.33;;;1.00;;
49578;SDS011;35483;50.828;3.228;2023-04-25T14:04:33;1.90;;;1.10;;
49578;SDS011;35483;50.828;3.228;2023-04-25T14:06:59;2.97;;;1.00;;
49578;SDS011;35483;50.828;3.228;2023-04-25T14:09:25;2.22;;;0.93;;
49578;SDS011;35483;50.828;3.228;2023-04-25T14:11:53;1.67;;;1.00;;
49578;SDS011;35483;50.828;3.228;2023-04-25T14:14:20;2.47;;;1.27;;
49578;SDS011;35483;50.828;3.228;2023-04-25T14:16:47;1.67;;;0.98;;
49578;SDS011;35483;50.828;3.228;2023-04-25T14:19:16;2.35;;;1.00;;
49578;SDS011;35483;50.828;3.228;2023-04-25T14:21:43;3.55;;;1.52;;
49578;SDS011;35483;50.828;3.228;2023-04-25T14:24:09;2.20;;;1.67;;
49578;SDS011;35483;50.828;3.228;2023-04-25T14:26:38;2.45;;;1.30;;
49578;SDS011;35483;50.828;3.228;2023-04-25T14:29:04;3.53;;;1.30;;
49578;SDS011;35483;50.828;3.228;2023-04-25T14:31:31;1.13;;;1.02;;
49578;SDS011;35483;50.828;3.228;2023-04-25T14:33:57;1.90;;;1.08;;
49578;SDS011;35483;50.828;3.228;2023-04-25T14:36:23;2.70;;;1.15;;
49578;SDS011;35483;50.828;3.228;2023-04-25T14:38:49;3.53;;;1.10;;
49578;SDS011;35483;50.828;3.228;2023-04-25T14:41:15;2.50;;;1.27;;
49578;SDS011;35483;50.828;3.228;2023-04-25T14:43:40;2.28;;;1.08;;
49578;SDS011;35483;50.828;3.228;2023-04-25T14:46:06;2.55;;;1.38;;
49578;SDS011;35483;50.828;3.228;2023-04-25T14:48:32;2.75;;;1.50;;
49578;SDS011;35483;50.828;3.228;2023-04-25T14:50:59;3.38;;;1.30;;
49578;SDS011;35483;50.828;3.228;2023-04-25T14:53:25;2.47;;;0.90;;
49578;SDS011;35483;50.828;3.228;2023-04-25T14:55:52;1.40;;;1.10;;
49578;SDS011;35483;50.828;3.228;2023-04-25T14:58:18;1.55;;;1.08;;